Check out our new BloomSky Weather System.

Active alerts

Galveston, TX
  Details for Galveston, TX Coastal Flood Advisory  +3 additional alerts
Fort Bend, TX
  Details for Fort Bend, TX Flash Flood Watch


Thunder radar  blitzortung!


Rain radar more information rain snow radar


Visit our other weather sites:

Template documentation
and downloads

And another site



Weather Underground History page Text

Daily Summary for June 25, 2017 Units:  English    Metric   Both
« Previous Day
Next Day »
Daily Weekly Monthly Yearly Custom
  High: Low: Average:
Temperature: TemperatureF °F 72.1 °F 79.4 °F
Dew Point: DewpointF °F 71.4 °F 74.4 °F
Humidity: Humidity % 63 % 85 %
Wind Speed: WindSpeedMPH mph 0.0 mph 1.5 mph
Wind Gust: WindSpeedGustMPH mph - -
Wind:- - SE
Pressure: PressureIn in 30.04 in -
Precipitation: 0.92 in    
Historical Graphs
 
 
Tabular Data for June 25, 2017
Time Temperature Dew Point Pressure Wind Wind Speed Wind Gust Humidity Rainfall Rate (Hourly)
TemperatureF °F DewpointF °F PressureIn in Calm     Humidity % HourlyPrecipIn in
00:01 77.7 °F 75.2 °F 30.09 in Calm   1.0 mph 92 % 0.00 in
00:06 77.7 °F 75.6 °F 30.09 in Calm   1.0 mph 93 % 0.00 in
00:11 77.5 °F 75.4 °F 30.09 in Calm   1.0 mph 93 % 0.00 in
00:16 77.7 °F 75.6 °F 30.09 in Calm   1.0 mph 93 % 0.00 in
00:21 77.5 °F 75.4 °F 30.09 in Calm   1.0 mph 93 % 0.00 in
00:26 77.5 °F 75.4 °F 30.09 in Calm   1.0 mph 93 % 0.00 in
00:31 77.4 °F 75.6 °F 30.09 in Calm     94 % 0.00 in
00:36 77.4 °F 75.6 °F 30.09 in Calm   1.0 mph 94 % 0.00 in
00:41 77.4 °F 75.6 °F 30.09 in Calm   1.0 mph 94 % 0.00 in
00:46 77.2 °F 75.4 °F 30.09 in Calm   1.0 mph 94 % 0.00 in
00:51 77.0 °F 75.2 °F 30.09 in Calm   1.0 mph 94 % 0.00 in
00:56 77.0 °F 75.4 °F 30.08 in Calm   1.0 mph 95 % 0.00 in
01:01 77.2 °F 75.6 °F 30.08 in Calm   1.0 mph 95 % 0.00 in
01:06 77.2 °F 75.6 °F 30.08 in Calm   1.0 mph 95 % 0.00 in
01:11 77.0 °F 75.4 °F 30.08 in Calm   1.0 mph 95 % 0.00 in
01:16 77.0 °F 75.4 °F 30.08 in Calm   1.0 mph 95 % 0.00 in
01:21 76.8 °F 75.2 °F 30.09 in Calm   1.0 mph 95 % 0.00 in
01:26 76.6 °F 75.0 °F 30.08 in Calm   1.0 mph 95 % 0.00 in
01:31 76.6 °F 75.0 °F 30.08 in Calm     95 % 0.00 in
01:36 76.6 °F 75.0 °F 30.08 in Calm     95 % 0.00 in
01:41 76.6 °F 75.0 °F 30.08 in Calm     95 % 0.00 in
01:46 76.6 °F 75.0 °F 30.08 in Calm     95 % 0.00 in
01:51 76.6 °F 75.0 °F 30.08 in Calm     95 % 0.00 in
01:53 76.6 °F 75.0 °F 30.08 in Calm     95 % 0.00 in
01:58 76.6 °F 75.4 °F 30.08 in Calm     96 % 0.00 in
02:03 76.6 °F 75.4 °F 30.08 in Calm     96 % 0.00 in
02:08 76.6 °F 75.4 °F 30.08 in Calm   1.0 mph 96 % 0.00 in
02:13 76.6 °F 75.4 °F 30.08 in Calm   1.0 mph 96 % 0.00 in
02:18 76.6 °F 75.4 °F 30.08 in Calm   1.0 mph 96 % 0.00 in
02:23 76.6 °F 75.4 °F 30.07 in Calm   1.0 mph 96 % 0.00 in
02:28 76.8 °F 75.6 °F 30.08 in Calm   1.0 mph 96 % 0.00 in
02:33 76.8 °F 75.6 °F 30.08 in NNW 1.0 mph 1.0 mph 96 % 0.00 in
02:38 76.8 °F 75.6 °F 30.08 in Calm   1.0 mph 96 % 0.00 in
02:43 76.8 °F 75.6 °F 30.08 in Calm   1.0 mph 96 % 0.00 in
02:48 76.8 °F 75.6 °F 30.08 in North 1.0 mph 1.0 mph 96 % 0.00 in
02:53 76.8 °F 75.6 °F 30.07 in Calm   1.0 mph 96 % 0.00 in
02:58 76.8 °F 75.6 °F 30.07 in Calm   1.0 mph 96 % 0.00 in
03:03 76.8 °F 75.6 °F 30.08 in Calm   1.0 mph 96 % 0.00 in
03:08 76.8 °F 75.6 °F 30.08 in Calm   1.0 mph 96 % 0.00 in
03:13 76.8 °F 75.9 °F 30.07 in Calm   1.0 mph 97 % 0.00 in
03:18 76.8 °F 75.9 °F 30.07 in NNW 1.0 mph 1.0 mph 97 % 0.00 in
03:23 77.0 °F 76.1 °F 30.07 in Calm   1.0 mph 97 % 0.00 in
03:28 77.0 °F 75.7 °F 30.07 in Calm   2.0 mph 96 % 0.00 in
03:33 76.8 °F 75.6 °F 30.07 in Calm   2.0 mph 96 % 0.00 in
03:38 76.8 °F 75.6 °F 30.07 in Calm   2.0 mph 96 % 0.00 in
03:43 77.0 °F 76.1 °F 30.07 in Calm   1.0 mph 97 % 0.00 in
03:48 77.0 °F 76.1 °F 30.06 in Calm   1.0 mph 97 % 0.00 in
03:53 77.2 °F 76.3 °F 30.06 in Calm   1.0 mph 97 % 0.00 in
03:58 77.2 °F 76.3 °F 30.06 in Calm   1.0 mph 97 % 0.00 in
04:03 77.2 °F 76.3 °F 30.06 in Calm   1.0 mph 97 % 0.00 in
04:08 77.2 °F 76.3 °F 30.06 in SSE 2.0 mph 2.0 mph 97 % 0.00 in
04:13 77.4 °F 76.5 °F 30.07 in SSE 1.0 mph 3.0 mph 97 % 0.00 in
04:19 77.4 °F 76.5 °F 30.07 in SE 2.0 mph 4.0 mph 97 % 0.00 in
04:24 77.2 °F 76.3 °F 30.07 in SSE 2.0 mph 4.0 mph 97 % 0.03 in
04:29 77.0 °F 76.1 °F 30.08 in SE 1.0 mph 5.0 mph 97 % 0.06 in
04:34 76.6 °F 75.4 °F 30.07 in South 4.0 mph 6.0 mph 96 % 0.10 in
04:39 75.9 °F 74.7 °F 30.08 in NE 1.0 mph 6.0 mph 96 % 0.11 in
04:44 75.2 °F 73.6 °F 30.08 in North 2.0 mph 6.0 mph 95 % 0.12 in
04:49 74.8 °F 73.6 °F 30.08 in East 4.0 mph 6.0 mph 96 % 0.14 in
04:54 74.5 °F 73.2 °F 30.08 in SE 1.0 mph 6.0 mph 96 % 0.16 in
04:59 74.5 °F 73.2 °F 30.08 in Calm   6.0 mph 96 % 0.18 in
05:04 74.5 °F 73.2 °F 30.09 in NE 2.0 mph 5.0 mph 96 % 0.22 in
05:09 74.1 °F 72.9 °F 30.09 in East 1.0 mph 4.0 mph 96 % 0.25 in
05:14 74.1 °F 72.9 °F 30.09 in Calm   3.0 mph 96 % 0.33 in
05:19 73.9 °F 73.0 °F 30.09 in Calm   3.0 mph 97 % 0.38 in
05:24 73.9 °F 73.0 °F 30.10 in South 2.0 mph 4.0 mph 97 % 0.36 in
05:29 73.9 °F 73.0 °F 30.11 in ESE 6.0 mph 6.0 mph 97 % 0.35 in
05:34 73.8 °F 72.5 °F 30.11 in SE 5.0 mph 11.0 mph 96 % 0.32 in
05:39 73.0 °F 71.8 °F 30.11 in Calm   20.0 mph 96 % 0.47 in
05:44 72.9 °F 71.6 °F 30.11 in SE 1.0 mph 20.0 mph 96 % 0.64 in
05:49 72.9 °F 72.0 °F 30.10 in ESE 2.0 mph 20.0 mph 97 % 0.67 in
05:54 72.7 °F 71.4 °F 30.10 in SE 1.0 mph 7.0 mph 96 % 0.70 in
05:59 72.7 °F 71.8 °F 30.09 in ESE 1.0 mph 9.0 mph 97 % 0.71 in
06:04 72.7 °F 71.8 °F 30.08 in Calm   9.0 mph 97 % 0.69 in
06:09 72.7 °F 71.8 °F 30.08 in NW 1.0 mph 9.0 mph 97 % 0.66 in
06:14 72.9 °F 72.0 °F 30.09 in East 2.0 mph 2.0 mph 97 % 0.58 in
06:19 72.9 °F 72.0 °F 30.09 in Calm   3.0 mph 97 % 0.53 in
06:24 72.9 °F 72.0 °F 30.08 in NW 1.0 mph 3.0 mph 97 % 0.52 in
06:29 72.7 °F 71.8 °F 30.08 in Calm   3.0 mph 97 % 0.51 in
06:34 72.7 °F 71.8 °F 30.08 in NW 3.0 mph 3.0 mph 97 % 0.50 in
06:39 72.5 °F 71.6 °F 30.08 in NW 1.0 mph 4.0 mph 97 % 0.34 in
06:44 72.3 °F 71.4 °F 30.08 in Calm   4.0 mph 97 % 0.16 in
06:49 72.3 °F 71.4 °F 30.08 in Calm   4.0 mph 97 % 0.11 in
06:54 72.3 °F 71.8 °F 30.08 in ENE 1.0 mph 4.0 mph 98 % 0.05 in
06:59 72.3 °F 71.8 °F 30.08 in Calm   3.0 mph 98 % 0.02 in
07:04 72.3 °F 71.4 °F 30.08 in Calm   1.0 mph 97 % 0.01 in
07:09 72.3 °F 71.8 °F 30.08 in Calm   1.0 mph 98 % 0.01 in
07:14 72.3 °F 71.8 °F 30.08 in Calm   1.0 mph 98 % 0.01 in
07:19 72.3 °F 71.8 °F 30.08 in Calm   1.0 mph 98 % 0.01 in
07:24 72.1 °F 71.6 °F 30.08 in Calm   1.0 mph 98 % 0.01 in
07:29 72.1 °F 71.6 °F 30.08 in Calm   1.0 mph 98 % 0.00 in
07:34 72.1 °F 71.6 °F 30.08 in Calm   1.0 mph 98 % 0.00 in
07:39 72.3 °F 71.8 °F 30.09 in SSW 1.0 mph 1.0 mph 98 % 0.00 in
07:45 72.3 °F 71.8 °F 30.09 in Calm   2.0 mph 98 % 0.00 in
07:50 72.7 °F 72.1 °F 30.09 in Calm   2.0 mph 98 % 0.00 in
07:54 72.7 °F 72.1 °F 30.09 in Calm   2.0 mph 98 % 0.00 in
07:59 72.7 °F 72.1 °F 30.10 in Calm   2.0 mph 98 % 0.00 in
08:04 73.0 °F 72.7 °F 30.10 in Calm     99 % 0.00 in
08:10 73.6 °F 73.0 °F 30.11 in Calm     98 % 0.00 in
08:14 73.6 °F 73.0 °F 30.11 in Calm     98 % 0.00 in
08:20 74.1 °F 73.6 °F 30.11 in Calm   1.0 mph 98 % 0.00 in
08:24 74.3 °F 73.8 °F 30.11 in Calm   2.0 mph 98 % 0.00 in
08:30 74.5 °F 73.6 °F 30.11 in NNW 1.0 mph 2.0 mph 97 % 0.00 in
08:35 74.1 °F 73.2 °F 30.11 in Calm   2.0 mph 97 % 0.00 in
08:40 74.5 °F 73.6 °F 30.11 in ENE 1.0 mph 4.0 mph 97 % 0.00 in
08:45 74.5 °F 73.9 °F 30.12 in Calm   4.0 mph 98 % 0.00 in
08:50 74.5 °F 73.6 °F 30.12 in Calm   4.0 mph 97 % 0.00 in
08:55 74.5 °F 73.6 °F 30.12 in NNW 3.0 mph 3.0 mph 97 % 0.00 in
09:00 74.7 °F 73.8 °F 30.12 in Calm   4.0 mph 97 % 0.00 in
09:05 75.0 °F 74.1 °F 30.12 in ENE 2.0 mph 6.0 mph 97 % 0.00 in
09:10 74.8 °F 73.2 °F 30.12 in ENE 2.0 mph 6.0 mph 95 % 0.00 in
09:15 75.0 °F 73.4 °F 30.12 in NW 2.0 mph 5.0 mph 95 % 0.00 in
09:20 75.9 °F 74.1 °F 30.13 in NW 3.0 mph 5.0 mph 94 % 0.00 in
09:25 77.2 °F 74.7 °F 30.13 in ENE 1.0 mph 5.0 mph 92 % 0.00 in
09:30 78.3 °F 74.7 °F 30.13 in North 4.0 mph 6.0 mph 89 % 0.00 in
09:35 78.8 °F 74.3 °F 30.14 in NNW 1.0 mph 6.0 mph 86 % 0.00 in
09:40 79.5 °F 75.0 °F 30.14 in North 3.0 mph 6.0 mph 86 % 0.00 in
09:45 80.2 °F 75.0 °F 30.14 in NW 1.0 mph 6.0 mph 84 % 0.00 in
09:50 81.0 °F 75.4 °F 30.14 in NW 2.0 mph 4.0 mph 83 % 0.00 in
09:55 81.1 °F 75.2 °F 30.14 in ENE 1.0 mph 4.0 mph 82 % 0.00 in
10:00 81.5 °F 75.0 °F 30.14 in WNW 2.0 mph 4.0 mph 81 % 0.00 in
10:05 81.3 °F 74.8 °F 30.15 in NW 2.0 mph 4.0 mph 81 % 0.00 in
10:10 81.3 °F 74.5 °F 30.15 in NW 3.0 mph 4.0 mph 80 % 0.00 in
10:15 81.7 °F 74.8 °F 30.15 in NNW 1.0 mph 5.0 mph 80 % 0.00 in
10:20 81.7 °F 74.8 °F 30.15 in West 2.0 mph 6.0 mph 80 % 0.00 in
10:25 81.1 °F 74.3 °F 30.14 in NNE 1.0 mph 9.0 mph 80 % 0.00 in
10:30 81.0 °F 73.8 °F 30.14 in West 1.0 mph 9.0 mph 79 % 0.00 in
10:35 81.1 °F 74.3 °F 30.15 in NW 1.0 mph 9.0 mph 80 % 0.00 in
10:39 81.1 °F 74.3 °F 30.15 in North 5.0 mph 9.0 mph 80 % 0.00 in
10:44 81.0 °F 75.0 °F 30.15 in WSW 2.0 mph 6.0 mph 82 % 0.00 in
10:49 81.0 °F 75.0 °F 30.15 in ENE 3.0 mph 6.0 mph 82 % 0.00 in
10:54 81.0 °F 75.4 °F 30.15 in NNE 1.0 mph 6.0 mph 83 % 0.00 in
10:59 81.1 °F 75.6 °F 30.15 in NNW 1.0 mph 6.0 mph 83 % 0.00 in
11:04 81.0 °F 75.4 °F 30.16 in North 2.0 mph 5.0 mph 83 % 0.00 in
11:09 81.0 °F 75.7 °F 30.15 in ENE 1.0 mph 6.0 mph 84 % 0.00 in
11:14 81.0 °F 75.7 °F 30.15 in East 3.0 mph 6.0 mph 84 % 0.00 in
11:19 80.8 °F 75.6 °F 30.15 in SE 2.0 mph 6.0 mph 84 % 0.00 in
11:24 80.8 °F 75.9 °F 30.15 in ENE 2.0 mph 6.0 mph 85 % 0.00 in
11:29 80.8 °F 75.9 °F 30.15 in East 1.0 mph 6.0 mph 85 % 0.00 in
11:34 81.0 °F 76.5 °F 30.15 in Calm   6.0 mph 86 % 0.00 in
11:39 81.3 °F 76.5 °F 30.15 in ESE 2.0 mph 6.0 mph 85 % 0.00 in
11:44 81.5 °F 76.5 °F 30.15 in Calm   6.0 mph 85 % 0.00 in
11:49 82.0 °F 76.6 °F 30.15 in NW 5.0 mph 8.0 mph 84 % 0.00 in
11:54 82.6 °F 76.8 °F 30.15 in East 3.0 mph 8.0 mph 83 % 0.00 in
11:59 82.9 °F 76.1 °F 30.14 in ESE 3.0 mph 8.0 mph 80 % 0.00 in
12:00 82.9 °F 76.1 °F 30.14 in East 4.0 mph 8.0 mph 80 % 0.00 in
12:05 82.9 °F 76.5 °F 30.14 in NNW 2.0 mph 8.0 mph 81 % 0.00 in
12:10 82.9 °F 76.1 °F 30.14 in East 3.0 mph 8.0 mph 80 % 0.00 in
12:15 82.8 °F 75.9 °F 30.14 in East 2.0 mph 8.0 mph 80 % 0.00 in
12:20 82.6 °F 76.1 °F 30.14 in North 1.0 mph 8.0 mph 81 % 0.00 in
12:25 82.8 °F 76.6 °F 30.14 in NNE 1.0 mph 7.0 mph 82 % 0.00 in
12:30 83.5 °F 77.4 °F 30.13 in ENE 2.0 mph 7.0 mph 82 % 0.00 in
12:35 83.7 °F 76.8 °F 30.13 in ENE 1.0 mph 6.0 mph 80 % 0.00 in
12:40 84.0 °F 78.3 °F 30.13 in NW 2.0 mph 6.0 mph 83 % 0.00 in
12:45 84.7 °F 78.3 °F 30.13 in NNW 2.0 mph 6.0 mph 81 % 0.00 in
12:50 85.1 °F 77.9 °F 30.12 in East 6.0 mph 6.0 mph 79 % 0.00 in
12:55 85.3 °F 78.1 °F 30.12 in ENE 5.0 mph 6.0 mph 79 % 0.00 in
13:00 84.9 °F 77.4 °F 30.12 in NNW 1.0 mph 8.0 mph 78 % 0.00 in
13:05 84.9 °F 78.1 °F 30.12 in East 1.0 mph 8.0 mph 80 % 0.00 in
13:10 84.9 °F 77.4 °F 30.12 in NNE 1.0 mph 8.0 mph 78 % 0.00 in
13:15 84.9 °F 77.4 °F 30.12 in ENE 3.0 mph 6.0 mph 78 % 0.00 in
13:20 84.7 °F 77.5 °F 30.12 in East 2.0 mph 8.0 mph 79 % 0.00 in
13:25 84.7 °F 77.5 °F 30.11 in ENE 1.0 mph 8.0 mph 79 % 0.00 in
13:30 85.3 °F 77.7 °F 30.12 in South 2.0 mph 8.0 mph 78 % 0.00 in
13:35 84.7 °F 77.2 °F 30.11 in NE 4.0 mph 9.0 mph 78 % 0.00 in
13:40 84.9 °F 77.4 °F 30.11 in ESE 4.0 mph 9.0 mph 78 % 0.00 in
13:45 85.6 °F 77.9 °F 30.10 in ESE 1.0 mph 9.0 mph 78 % 0.00 in
13:50 86.9 °F 78.4 °F 30.10 in WNW 1.0 mph 6.0 mph 76 % 0.00 in
13:55 87.3 °F 77.5 °F 30.10 in NNW 2.0 mph 6.0 mph 73 % 0.00 in
14:00 87.4 °F 78.6 °F 30.10 in North 2.0 mph 7.0 mph 75 % 0.00 in
14:05 87.4 °F 78.1 °F 30.10 in NE 1.0 mph 7.0 mph 74 % 0.00 in
14:10 86.5 °F 77.7 °F 30.10 in NE 4.0 mph 8.0 mph 75 % 0.00 in
14:15 86.5 °F 78.4 °F 30.10 in ESE 4.0 mph 8.0 mph 77 % 0.00 in
14:20 86.4 °F 77.0 °F 30.10 in South 2.0 mph 10.0 mph 74 % 0.00 in
14:25 86.7 °F 77.4 °F 30.10 in SE 7.0 mph 10.0 mph 74 % 0.00 in
14:31 86.5 °F 76.5 °F 30.10 in East 5.0 mph 10.0 mph 72 % 0.00 in
14:36 86.2 °F 73.9 °F 30.09 in South 1.0 mph 10.0 mph 67 % 0.00 in
14:41 86.0 °F 74.1 °F 30.09 in ESE 7.0 mph 10.0 mph 68 % 0.00 in
14:46 86.0 °F 74.1 °F 30.09 in ESE 5.0 mph 9.0 mph 68 % 0.00 in
14:51 86.0 °F 73.2 °F 30.09 in East 2.0 mph 9.0 mph 66 % 0.00 in
14:56 86.0 °F 72.9 °F 30.09 in NNE 2.0 mph 9.0 mph 65 % 0.00 in
15:01 86.2 °F 72.1 °F 30.08 in ESE 5.0 mph 8.0 mph 63 % 0.00 in
15:06 86.5 °F 73.4 °F 30.08 in NW 1.0 mph 7.0 mph 65 % 0.00 in
15:11 87.1 °F 74.3 °F 30.08 in Calm   6.0 mph 66 % 0.00 in
15:16 87.1 °F 72.9 °F 30.07 in ESE 1.0 mph 6.0 mph 63 % 0.00 in
15:21 86.9 °F 72.9 °F 30.07 in East 5.0 mph 7.0 mph 63 % 0.00 in
15:26 87.1 °F 73.4 °F 30.06 in NE 2.0 mph 7.0 mph 64 % 0.00 in
15:31 87.3 °F 73.0 °F 30.07 in SSE 1.0 mph 7.0 mph 63 % 0.00 in
15:36 87.1 °F 74.3 °F 30.07 in East 4.0 mph 6.0 mph 66 % 0.00 in
15:41 86.5 °F 74.7 °F 30.06 in ESE 6.0 mph 7.0 mph 68 % 0.00 in
15:46 86.5 °F 75.6 °F 30.06 in ESE 5.0 mph 7.0 mph 70 % 0.00 in
15:51 86.5 °F 75.9 °F 30.06 in ESE 7.0 mph 7.0 mph 71 % 0.00 in
15:56 86.0 °F 76.3 °F 30.06 in ESE 6.0 mph 10.0 mph 73 % 0.00 in
16:01 85.6 °F 76.5 °F 30.06 in ESE 3.0 mph 10.0 mph 74 % 0.00 in
16:06 85.8 °F 77.4 °F 30.06 in East 4.0 mph 10.0 mph 76 % 0.00 in
16:11 86.4 °F 78.3 °F 30.06 in ESE 8.0 mph 9.0 mph 77 % 0.00 in
16:16 87.1 °F 78.3 °F 30.06 in SSE 1.0 mph 10.0 mph 75 % 0.00 in
16:21 87.3 °F 78.4 °F 30.06 in WNW 2.0 mph 10.0 mph 75 % 0.00 in
16:26 87.3 °F 78.4 °F 30.06 in East 4.0 mph 10.0 mph 75 % 0.00 in
16:31 87.6 °F 77.5 °F 30.06 in ESE 3.0 mph 9.0 mph 72 % 0.00 in
16:36 87.4 °F 77.4 °F 30.06 in South 3.0 mph 9.0 mph 72 % 0.00 in
16:41 87.4 °F 77.7 °F 30.06 in East 3.0 mph 9.0 mph 73 % 0.00 in
16:46 87.4 °F 77.7 °F 30.06 in NNE 1.0 mph 9.0 mph 73 % 0.00 in
16:51 87.3 °F 76.6 °F 30.06 in ESE 1.0 mph 9.0 mph 71 % 0.00 in
16:56 87.1 °F 77.4 °F 30.06 in SE 3.0 mph 9.0 mph 73 % 0.00 in
17:01 87.1 °F 77.0 °F 30.06 in ESE 3.0 mph 9.0 mph 72 % 0.00 in
17:06 87.6 °F 76.6 °F 30.06 in SE 5.0 mph 9.0 mph 70 % 0.00 in
17:11 88.0 °F 77.0 °F 30.06 in East 1.0 mph 9.0 mph 70 % 0.00 in
17:16 87.8 °F 77.7 °F 30.06 in ENE 7.0 mph 9.0 mph 72 % 0.00 in
17:21 87.1 °F 76.5 °F 30.06 in NNW 2.0 mph 9.0 mph 71 % 0.00 in
17:26 86.5 °F 76.8 °F 30.06 in SSE 2.0 mph 8.0 mph 73 % 0.00 in
17:31 86.2 °F 76.5 °F 30.06 in East 2.0 mph 8.0 mph 73 % 0.00 in
17:36 86.0 °F 76.3 °F 30.05 in ENE 4.0 mph 7.0 mph 73 % 0.00 in
17:41 86.2 °F 77.0 °F 30.05 in NE 4.0 mph 6.0 mph 74 % 0.00 in
17:46 86.4 °F 76.6 °F 30.05 in East 2.0 mph 8.0 mph 73 % 0.00 in
17:51 86.7 °F 76.6 °F 30.05 in SE 6.0 mph 8.0 mph 72 % 0.00 in
17:56 86.7 °F 75.4 °F 30.05 in East 1.0 mph 10.0 mph 69 % 0.00 in
18:01 86.4 °F 75.9 °F 30.04 in North 1.0 mph 10.0 mph 71 % 0.00 in
18:06 85.8 °F 75.4 °F 30.04 in ESE 1.0 mph 10.0 mph 71 % 0.00 in
18:11 85.6 °F 75.6 °F 30.04 in ENE 2.0 mph 8.0 mph 72 % 0.00 in
18:16 85.5 °F 75.7 °F 30.05 in ESE 2.0 mph 6.0 mph 73 % 0.00 in
18:21 85.5 °F 75.4 °F 30.05 in ESE 4.0 mph 5.0 mph 72 % 0.00 in
18:26 84.9 °F 74.8 °F 30.05 in SE 1.0 mph 6.0 mph 72 % 0.00 in
18:31 84.9 °F 75.7 °F 30.05 in ESE 8.0 mph 8.0 mph 74 % 0.00 in
18:36 84.4 °F 75.2 °F 30.05 in SE 3.0 mph 12.0 mph 74 % 0.00 in
18:41 83.8 °F 75.4 °F 30.05 in ESE 3.0 mph 12.0 mph 76 % 0.00 in
18:46 83.5 °F 75.0 °F 30.06 in ESE 1.0 mph 12.0 mph 76 % 0.00 in
18:51 82.8 °F 73.6 °F 30.06 in SE 5.0 mph 10.0 mph 74 % 0.00 in
18:56 82.0 °F 72.9 °F 30.06 in ESE 3.0 mph 10.0 mph 74 % 0.00 in
19:01 81.9 °F 72.7 °F 30.06 in SSE 4.0 mph 10.0 mph 74 % 0.00 in
19:07 81.7 °F 72.5 °F 30.06 in SE 2.0 mph 10.0 mph 74 % 0.00 in
19:12 81.7 °F 73.0 °F 30.05 in SSE 2.0 mph 7.0 mph 75 % 0.00 in
19:16 81.7 °F 73.0 °F 30.05 in ESE 2.0 mph 6.0 mph 75 % 0.00 in
19:21 81.5 °F 73.2 °F 30.05 in SE 1.0 mph 6.0 mph 76 % 0.00 in
19:26 81.3 °F 73.4 °F 30.05 in ESE 1.0 mph 6.0 mph 77 % 0.00 in
19:31 81.3 °F 73.4 °F 30.06 in ESE 2.0 mph 6.0 mph 77 % 0.00 in
19:36 81.3 °F 73.4 °F 30.06 in Calm   6.0 mph 77 % 0.00 in
19:41 81.1 °F 73.2 °F 30.06 in Calm   4.0 mph 77 % 0.00 in
19:46 81.1 °F 73.2 °F 30.07 in Calm   3.0 mph 77 % 0.00 in
19:51 81.0 °F 73.0 °F 30.07 in Calm   3.0 mph 77 % 0.00 in
19:56 81.0 °F 73.0 °F 30.06 in Calm   3.0 mph 77 % 0.00 in
20:01 80.8 °F 72.9 °F 30.06 in ESE 2.0 mph 2.0 mph 77 % 0.00 in
20:06 80.8 °F 72.9 °F 30.06 in Calm   4.0 mph 77 % 0.00 in
20:11 80.6 °F 73.0 °F 30.06 in NE 2.0 mph 4.0 mph 78 % 0.00 in
20:16 80.8 °F 73.6 °F 30.06 in ENE 2.0 mph 4.0 mph 79 % 0.00 in
20:21 80.8 °F 73.9 °F 30.07 in NNE 2.0 mph 5.0 mph 80 % 0.00 in
20:26 80.4 °F 74.5 °F 30.07 in Calm   6.0 mph 82 % 0.00 in
20:31 80.1 °F 74.1 °F 30.07 in North 1.0 mph 6.0 mph 82 % 0.00 in
20:37 79.9 °F 74.3 °F 30.07 in SE 1.0 mph 6.0 mph 83 % 0.00 in
20:42 79.5 °F 74.3 °F 30.07 in NE 2.0 mph 5.0 mph 84 % 0.00 in
20:47 79.3 °F 74.1 °F 30.07 in Calm   4.0 mph 84 % 0.00 in
20:52 79.3 °F 74.1 °F 30.07 in Calm   3.0 mph 84 % 0.00 in
20:57 79.2 °F 74.3 °F 30.07 in Calm   3.0 mph 85 % 0.00 in
21:02 79.2 °F 74.3 °F 30.07 in Calm   3.0 mph 85 % 0.00 in
21:07 79.0 °F 73.8 °F 30.08 in East 2.0 mph 3.0 mph 84 % 0.00 in
21:12 78.8 °F 73.6 °F 30.08 in Calm   6.0 mph 84 % 0.00 in
21:17 78.6 °F 73.4 °F 30.08 in North 1.0 mph 6.0 mph 84 % 0.00 in
21:22 78.6 °F 73.0 °F 30.08 in Calm   6.0 mph 83 % 0.00 in
21:27 78.4 °F 72.9 °F 30.08 in Calm   3.0 mph 83 % 0.00 in
21:32 78.3 °F 73.0 °F 30.09 in Calm   2.0 mph 84 % 0.00 in
21:37 78.3 °F 73.0 °F 30.09 in Calm   2.0 mph 84 % 0.00 in
21:42 78.3 °F 73.4 °F 30.09 in ENE 1.0 mph 2.0 mph 85 % 0.00 in
21:47 78.1 °F 73.2 °F 30.08 in ENE 1.0 mph 3.0 mph 85 % 0.00 in
21:52 77.9 °F 73.0 °F 30.09 in Calm   3.0 mph 85 % 0.00 in
21:57 77.7 °F 72.9 °F 30.09 in Calm   3.0 mph 85 % 0.00 in
22:02 77.5 °F 72.7 °F 30.09 in NNW 1.0 mph 3.0 mph 85 % 0.00 in
22:07 77.5 °F 73.0 °F 30.09 in ENE 1.0 mph 2.0 mph 86 % 0.00 in
22:12 77.4 °F 72.9 °F 30.09 in North 1.0 mph 3.0 mph 86 % 0.00 in
22:17 77.4 °F 72.9 °F 30.10 in Calm   3.0 mph 86 % 0.00 in
22:22 77.4 °F 72.9 °F 30.10 in NE 1.0 mph 3.0 mph 86 % 0.00 in
22:27 77.2 °F 72.7 °F 30.10 in Calm   3.0 mph 86 % 0.00 in
22:32 77.0 °F 72.5 °F 30.10 in Calm   3.0 mph 86 % 0.00 in
22:37 77.0 °F 72.5 °F 30.10 in Calm   3.0 mph 86 % 0.00 in
22:42 76.8 °F 72.7 °F 30.10 in NNE 1.0 mph 2.0 mph 87 % 0.00 in
22:47 76.8 °F 72.7 °F 30.10 in Calm   2.0 mph 87 % 0.00 in
22:52 77.0 °F 72.9 °F 30.10 in Calm   3.0 mph 87 % 0.00 in
22:57 77.2 °F 73.0 °F 30.10 in Calm   3.0 mph 87 % 0.00 in
23:02 77.2 °F 73.0 °F 30.10 in NE 1.0 mph 3.0 mph 87 % 0.00 in
23:07 77.5 °F 73.4 °F 30.10 in Calm   3.0 mph 87 % 0.00 in
23:12 77.5 °F 73.4 °F 30.11 in ENE 3.0 mph 4.0 mph 87 % 0.00 in
23:17 77.7 °F 73.6 °F 30.10 in Calm   5.0 mph 87 % 0.00 in
23:22 77.7 °F 73.6 °F 30.10 in Calm   5.0 mph 87 % 0.00 in
23:27 77.7 °F 73.9 °F 30.10 in Calm   5.0 mph 88 % 0.00 in
23:32 77.7 °F 73.9 °F 30.10 in Calm   4.0 mph 88 % 0.00 in
23:37 77.7 °F 73.9 °F 30.09 in Calm   4.0 mph 88 % 0.00 in
23:42 77.5 °F 73.8 °F 30.09 in Calm   2.0 mph 88 % 0.00 in
23:47 77.4 °F 73.9 °F 30.10 in NE 1.0 mph 3.0 mph 89 % 0.00 in
23:52 77.4 °F 73.9 °F 30.10 in ESE 1.0 mph 3.0 mph 89 % 0.00 in
23:57 77.4 °F 74.1 °F 30.10 in East 3.0 mph 3.0 mph 90 % 0.00 in
Spring, Texas: Villages of Bridgestone
Compliments of Weather Underground - 3.25 mb

Script developed by  Jim McMurry - jmcmurry@mwt.net Adapted for the template by  Wim van der Kuil - Leuven-Template.eu

You find our weather info also at:

UK Metoffice

WeatherCloud

Weather Underground

Mid-South Weather Network

AWEKAS

Citizen Weather Observer Program (CWOP)

HAMweather, WeatherForYou, PWS Weather

Equipment we use:

Weather-station
Davis Vantage Vue

Weather-program
Meteohub

Weather-server
Debian 7.9 x86 (Guest)

Provider
DreamHost

Davis Vantage Vue

Meteohub

Debian 7.9 x86 (Guest)

DreamHost